DTTA/TUN METAR and TAF weather

Enter ICAO airport designator
Station Type Date Time Source
DTTA METAR 2019/02/23 02:30 UTC NOAA

DTTA 230230Z 33003KT 9999 SCT026 10/08 Q1022 NOSIG


Station Type Date Time Source
DTTA Decoded METAR 2019/02/23 02:30 UTC NOAA

Tunis-Carthage, Tunisia (DTTA) 36-50N 010-14E 4M
Feb 22, 2019 - 09:30 PM EST / 2019.02.23 0230 UTC
Wind: from the NNW (330 degrees) at 3 MPH (3 KT):0
Visibility: greater than 7 mile(s):0
Sky conditions: partly cloudy
Temperature: 50 F (10 C)
Dew Point: 46 F (8 C)
Relative Humidity: 87%
Pressure (altimeter): 30.18 in. Hg (1022 hPa)
ob: DTTA 230230Z 33003KT 9999 SCT026 10/08 Q1022 NOSIG
cycle: 2

Station Type Date Time Source
DTTA TAF 2019/02/22 18:09 UTC NOAA

TAF DTTA 221700Z 2218/2318 30012KT 9999 SCT026 SCT040
BECMG 2307/2309 33021G27KT PROB30
TEMPO 2312/2318 35025G45KT -TSRA FEW026CB


Example: see airport list